createdAt,value
2022-08-06T00:00:44.992Z,99.21
2022-08-06T00:06:09.365Z,98.73
2022-08-06T00:11:32.023Z,97.22
2022-08-06T00:16:56.217Z,96.97
2022-08-06T00:22:27.637Z,98.09
2022-08-06T00:27:43.628Z,99.16
2022-08-06T00:33:08.269Z,99.76
2022-08-06T00:38:33.081Z,100.00
2022-08-06T00:43:57.518Z,100.00
2022-08-06T00:49:48.236Z,100.00
2022-08-06T00:54:44.325Z,100.00
2022-08-06T01:00:29.298Z,100.00
2022-08-06T01:06:04.279Z,98.59
2022-08-06T01:10:56.841Z,98.75
2022-08-06T01:16:48.911Z,96.85
2022-08-06T01:22:34.542Z,92.11
2022-08-06T01:28:16.832Z,87.95
2022-08-06T01:34:02.875Z,85.02
2022-08-06T01:40:01.740Z,83.46
2022-08-06T01:44:56.639Z,83.77
2022-08-06T01:50:28.231Z,84.04
2022-08-06T01:55:59.332Z,84.78
2022-08-06T02:01:24.740Z,85.34
2022-08-06T02:06:57.721Z,85.02
2022-08-06T02:12:25.166Z,83.62
2022-08-06T02:18:03.637Z,82.30
2022-08-06T02:23:21.946Z,81.17
2022-08-06T02:28:50.084Z,80.78
2022-08-06T02:34:14.091Z,81.04
2022-08-06T02:40:01.499Z,82.09
2022-08-06T02:45:38.551Z,83.10
2022-08-06T02:51:05.373Z,84.28
2022-08-06T02:56:30.053Z,84.71
2022-08-06T03:01:58.964Z,83.97
2022-08-06T03:07:26.823Z,84.06
2022-08-06T03:12:49.838Z,84.10
2022-08-06T03:18:14.120Z,84.14
2022-08-06T03:23:39.802Z,84.58
2022-08-06T03:29:06.378Z,84.60
2022-08-06T03:34:33.339Z,83.65
2022-08-06T03:39:59.249Z,83.17
2022-08-06T03:45:45.464Z,82.54
2022-08-06T03:50:56.426Z,81.89
2022-08-06T03:56:29.635Z,81.61
2022-08-06T04:01:52.249Z,81.42
2022-08-06T04:07:17.988Z,81.36
2022-08-06T04:13:07.242Z,82.51
2022-08-06T04:18:10.100Z,83.80
2022-08-06T04:23:38.372Z,84.12
2022-08-06T04:29:01.618Z,84.08
2022-08-06T04:34:34.176Z,83.33
2022-08-06T04:39:59.342Z,82.50
2022-08-06T04:46:17.882Z,81.50
2022-08-06T04:50:46.815Z,80.55
2022-08-06T04:56:15.222Z,78.96
2022-08-06T05:01:53.239Z,78.18
2022-08-06T05:07:23.422Z,77.65
2022-08-06T05:12:53.155Z,76.96
2022-08-06T05:19:19.381Z,75.87
2022-08-06T05:24:01.825Z,75.34
2022-08-06T05:29:29.331Z,74.90
2022-08-06T05:34:54.815Z,74.36
2022-08-06T05:40:20.407Z,73.98
2022-08-06T05:45:42.683Z,74.14
2022-08-06T05:51:16.457Z,73.75
2022-08-06T05:56:47.657Z,73.86
2022-08-06T06:02:12.464Z,74.18
2022-08-06T06:08:09.117Z,74.22
2022-08-06T06:13:03.517Z,74.31
2022-08-06T06:19:10.645Z,74.01
2022-08-06T06:24:37.071Z,73.98
2022-08-06T06:30:19.950Z,73.97
2022-08-06T06:35:55.105Z,72.69
2022-08-06T06:41:31.518Z,72.22
2022-08-06T06:47:02.844Z,70.95
2022-08-06T06:52:37.874Z,71.41
2022-08-06T06:58:10.268Z,71.56
2022-08-06T07:03:43.244Z,70.99
2022-08-06T07:09:14.850Z,70.49
2022-08-06T07:14:27.913Z,71.23
2022-08-06T07:19:55.890Z,70.22
2022-08-06T07:25:24.295Z,69.58
2022-08-06T07:30:48.122Z,68.46
2022-08-06T07:36:16.524Z,67.87
2022-08-06T07:42:06.955Z,67.72
2022-08-06T07:47:23.392Z,67.32
2022-08-06T07:52:35.495Z,67.48
2022-08-06T07:58:00.894Z,67.15
2022-08-06T08:03:57.334Z,66.43
2022-08-06T08:09:19.807Z,65.89
2022-08-06T08:14:47.458Z,64.80
2022-08-06T08:20:16.426Z,64.33
2022-08-06T08:25:40.027Z,64.13
2022-08-06T08:31:15.629Z,64.21
2022-08-06T08:36:31.291Z,62.79
2022-08-06T08:42:17.856Z,61.79
2022-08-06T08:47:47.028Z,59.85
2022-08-06T08:53:12.633Z,60.81
2022-08-06T08:58:47.675Z,61.40
2022-08-06T09:04:03.512Z,60.71
2022-08-06T09:09:30.133Z,59.73
2022-08-06T09:14:52.690Z,60.29
2022-08-06T09:20:17.373Z,60.79
2022-08-06T09:26:02.028Z,61.58
2022-08-06T09:31:44.790Z,60.99
2022-08-06T09:37:04.782Z,59.65
2022-08-06T09:42:48.075Z,58.11
2022-08-06T09:48:22.598Z,58.23
2022-08-06T09:54:02.941Z,56.25
2022-08-06T09:59:14.628Z,56.09
2022-08-06T10:04:46.762Z,55.93
2022-08-06T10:10:12.102Z,52.52
2022-08-06T10:15:57.602Z,50.34
2022-08-06T10:21:19.180Z,50.01
2022-08-06T10:26:43.315Z,50.52
2022-08-06T10:32:12.182Z,50.78
2022-08-06T10:37:47.941Z,47.46
2022-08-06T10:42:57.707Z,42.61
2022-08-06T10:49:01.403Z,40.85
2022-08-06T10:54:01.207Z,40.93
2022-08-06T10:59:40.692Z,38.86
2022-08-06T11:05:17.630Z,36.16
2022-08-06T11:11:04.651Z,37.42
2022-08-06T11:16:38.827Z,39.22
2022-08-06T11:22:05.192Z,41.41
2022-08-06T11:27:53.333Z,44.91
2022-08-06T11:33:18.350Z,48.53
2022-08-06T11:39:09.797Z,48.39
2022-08-06T11:44:34.350Z,46.39
2022-08-06T11:50:04.590Z,42.54
2022-08-06T11:55:32.386Z,41.10
2022-08-06T12:01:33.602Z,39.60
2022-08-06T12:06:41.398Z,39.64
2022-08-06T12:12:07.019Z,38.17
2022-08-06T12:17:45.396Z,37.74
2022-08-06T12:22:57.732Z,37.59
2022-08-06T12:28:24.903Z,34.75
2022-08-06T12:33:49.657Z,36.46
2022-08-06T12:39:19.432Z,36.64
2022-08-06T12:44:57.191Z,36.55
2022-08-06T12:50:14.802Z,33.94
2022-08-06T12:55:38.864Z,33.21
2022-08-06T13:01:05.967Z,31.39
2022-08-06T13:06:36.790Z,31.61
2022-08-06T13:11:56.910Z,31.78
2022-08-06T13:17:41.652Z,32.30
2022-08-06T13:23:05.857Z,34.94
2022-08-06T13:28:32.042Z,31.26
2022-08-06T13:34:08.281Z,31.32
2022-08-06T13:39:59.889Z,31.58
2022-08-06T13:45:56.373Z,33.86
2022-08-06T13:51:01.221Z,31.26
2022-08-06T13:56:29.339Z,32.05
2022-08-06T14:01:53.057Z,30.27
2022-08-06T14:07:16.504Z,29.75
2022-08-06T14:12:39.215Z,28.51
2022-08-06T14:18:02.522Z,31.12
2022-08-06T14:23:40.281Z,29.09
2022-08-06T14:30:19.812Z,27.85
2022-08-06T14:34:15.792Z,30.42
2022-08-06T14:39:58.923Z,31.20
2022-08-06T14:45:04.268Z,29.41
2022-08-06T14:50:37.424Z,29.78
2022-08-06T14:56:07.192Z,30.13
2022-08-06T15:01:17.329Z,29.35
2022-08-06T15:06:44.446Z,31.60
2022-08-06T15:12:05.400Z,28.05
2022-08-06T15:17:50.160Z,28.50
2022-08-06T15:22:52.046Z,28.99
2022-08-06T15:28:15.090Z,28.22
2022-08-06T15:33:40.207Z,27.31
2022-08-06T15:39:02.585Z,26.20
2022-08-06T15:44:30.860Z,26.96
2022-08-06T15:50:02.585Z,26.85
2022-08-06T15:55:17.743Z,28.34
2022-08-06T16:00:59.876Z,28.33
2022-08-06T16:06:11.065Z,27.93
2022-08-06T16:11:48.413Z,32.53
2022-08-06T16:16:55.015Z,33.23
2022-08-06T16:22:18.126Z,33.69
2022-08-06T16:27:40.919Z,33.12
2022-08-06T16:33:04.212Z,30.04
2022-08-06T16:38:31.330Z,29.29
2022-08-06T16:43:51.982Z,29.73
2022-08-06T16:49:20.593Z,29.96
2022-08-06T16:54:43.940Z,30.37
2022-08-06T17:00:04.044Z,30.50
2022-08-06T17:10:58.122Z,32.95
2022-08-06T17:21:52.997Z,31.70
2022-08-06T17:27:08.727Z,32.01
2022-08-06T17:32:36.680Z,32.19
2022-08-06T17:38:01.693Z,32.18
2022-08-06T17:43:54.504Z,31.65
2022-08-06T17:48:50.357Z,32.38
2022-08-06T17:54:44.471Z,32.17
2022-08-06T17:59:44.687Z,33.93
2022-08-06T18:05:04.971Z,35.72
2022-08-06T18:10:31.295Z,36.56
2022-08-06T18:15:54.447Z,37.66
2022-08-06T18:21:24.753Z,38.43
2022-08-06T18:26:40.871Z,39.23
2022-08-06T18:32:05.237Z,40.20
2022-08-06T18:37:30.165Z,41.34
2022-08-06T18:42:52.251Z,41.52
2022-08-06T18:48:16.607Z,42.54
2022-08-06T18:54:01.099Z,43.20
2022-08-06T18:59:23.118Z,44.07
2022-08-06T19:04:32.126Z,44.13
2022-08-06T19:09:56.486Z,44.95
2022-08-06T19:15:19.618Z,45.45
2022-08-06T19:20:43.982Z,46.05
2022-08-06T19:26:12.896Z,46.19
2022-08-06T19:31:42.106Z,46.60
2022-08-06T19:37:02.966Z,47.14
2022-08-06T19:42:31.971Z,47.36
2022-08-06T19:47:49.401Z,47.89
2022-08-06T19:53:12.860Z,47.97
2022-08-06T19:58:35.653Z,48.44
2022-08-06T20:04:00.362Z,48.98
2022-08-06T20:09:29.517Z,51.12
2022-08-06T20:14:48.449Z,50.11
2022-08-06T20:20:11.606Z,51.11
2022-08-06T20:25:40.682Z,51.17
2022-08-06T20:31:02.065Z,51.88
2022-08-06T20:36:27.916Z,51.95
2022-08-06T20:42:03.558Z,52.31
2022-08-06T20:47:56.637Z,52.68
2022-08-06T20:52:40.195Z,52.87
2022-08-06T20:58:04.617Z,53.11
2022-08-06T21:05:11.556Z,53.15
2022-08-06T21:08:51.377Z,53.62
2022-08-06T21:14:13.618Z,53.75
2022-08-06T21:19:40.952Z,53.85
2022-08-06T21:25:07.802Z,54.32
2022-08-06T21:30:34.811Z,54.63
2022-08-06T21:35:58.746Z,55.19
2022-08-06T21:41:29.359Z,55.38
2022-08-06T21:46:57.887Z,55.59
2022-08-06T21:52:11.145Z,56.02
2022-08-06T21:57:45.619Z,56.48
2022-08-06T22:02:59.583Z,56.78
2022-08-06T22:08:22.552Z,56.68
2022-08-06T22:13:56.864Z,57.05
2022-08-06T22:19:10.835Z,57.43
2022-08-06T22:24:35.405Z,57.76
2022-08-06T22:30:17.764Z,58.46
2022-08-06T22:35:58.201Z,59.31
2022-08-06T22:41:05.709Z,60.02
2022-08-06T22:46:30.075Z,60.81
2022-08-06T22:51:53.631Z,61.15
2022-08-06T22:57:16.128Z,61.52
2022-08-06T23:02:40.583Z,61.78
2022-08-06T23:08:05.123Z,62.35
2022-08-06T23:13:44.152Z,62.79
2022-08-06T23:18:55.784Z,63.15
2022-08-06T23:24:32.797Z,63.71
2022-08-06T23:30:09.181Z,64.30
2022-08-06T23:35:35.214Z,65.32
2022-08-06T23:40:35.775Z,65.84
2022-08-06T23:45:58.138Z,66.24
2022-08-06T23:51:35.835Z,66.04
2022-08-06T23:56:46.416Z,66.09
